Terminal Aerodrome Forecast
Issued by NWS Corpus Christi, TX

Home | Current Version | Previous Version | Text Only | Print | Product List | Glossary On
Versions: 1 2 3 4 5 6 7 8 9 10 11 12 13 14 15 16
000
FTUS44 KCRP 301135
TAFVCT
TAF
KVCT 301135Z 3012/0112 14007KT 6SM HZ FEW015
      TEMPO 3012/3013 5SM BR SCT012
     FM301400 VRB05KT P6SM SCT024
      TEMPO 3017/3021 4SM TS BR BKN028CB
     FM302100 16012KT P6SM VCTS SCT030CB BKN120 PROB30 3021/0101 4SM
      TS BR BKN028CB
     FM010100 15006KT P6SM FEW025 BKN120=

USA.gov is the U.S. government's official web portal to all federal, state and local government web resources and services.